Back to Top

Language: 

My Weather Underground Personal Weather Station Historical Data with Graphs...

Delerius Weather Station Historical Data
Daily Summary for October 4, 2017 Units:  Metric    English   Both
« Previous Day
Next Day »
Daily Weekly Monthly Yearly Custom
  High: Low: Average:
Temperature: 13.3 °C 10.5 °C 11.7 °C
Dew Point: 11.9 °C 7 °C 8.9 °C
Humidity: 93 % 78 % 84 %
Wind Speed: 25.7 km/h 6.4 km/h 16.9 km/h
Wind Gust: 48.3 km/h - -
Wind:- - WSW
Pressure: 1021.6 hPa 1007.3 hPa -
Precipitation: 0.25 mm    
Historical Graphs
 
 
Tabular Data for October 4, 2017
Time Temperature Dew Point Pressure Wind Wind Speed Wind Gust Humidity Rainfall Rate (Hourly) solar Conditions
00:00 11.2 °C 7.9 °C 1021.2 hPa West 11.3 km/h 29 km/h 80 % 0 mm 0 W/m2
00:05 11.2 °C 7.9 °C 1021.2 hPa WSW 9.7 km/h 17.7 km/h 80 % 0 mm 0 W/m2
00:10 11.2 °C 7.9 °C 1021.2 hPa WSW 12.9 km/h 24.1 km/h 80 % 0 mm 0 W/m2
00:15 11.2 °C 7.9 °C 1021.2 hPa WSW 14.5 km/h 24.1 km/h 80 % 0 mm 0 W/m2
00:25 11.2 °C 8.1 °C 1021.2 hPa West 12.9 km/h 24.1 km/h 81 % 0 mm 0 W/m2
00:26 11.2 °C 8.1 °C 1021.2 hPa West 12.9 km/h 24.1 km/h 81 % 0 mm 0 W/m2
00:31 11.2 °C 8.1 °C 1021.2 hPa West 14.5 km/h 29 km/h 81 % 0 mm 0 W/m2
00:36 11.2 °C 8.1 °C 1021.6 hPa West 14.5 km/h 29 km/h 81 % 0 mm 0 W/m2
00:41 11.2 °C 8.1 °C 1021.2 hPa WSW 16.1 km/h 29 km/h 81 % 0 mm 0 W/m2
00:46 11.2 °C 8.1 °C 1021.2 hPa West 14.5 km/h 29 km/h 81 % 0 mm 0 W/m2
00:51 11.1 °C 7.9 °C 1020.9 hPa WSW 11.3 km/h 24.1 km/h 81 % 0 mm 0 W/m2
00:56 11.1 °C 7.9 °C 1020.9 hPa WSW 12.9 km/h 24.1 km/h 81 % 0 mm 0 W/m2
01:01 11.1 °C 7.8 °C 1020.9 hPa WSW 14.5 km/h 30.6 km/h 80 % 0 mm 0 W/m2
01:06 11.1 °C 7.9 °C 1020.9 hPa WSW 14.5 km/h 30.6 km/h 81 % 0 mm 0 W/m2
01:11 11.1 °C 7.9 °C 1020.9 hPa WSW 14.5 km/h 22.5 km/h 81 % 0 mm 0 W/m2
01:16 11.1 °C 7.9 °C 1020.5 hPa WSW 12.9 km/h 22.5 km/h 81 % 0 mm 0 W/m2
01:21 11 °C 7.9 °C 1020.5 hPa WSW 11.3 km/h 25.7 km/h 81 % 0 mm 0 W/m2
01:31 11 °C 7.9 °C 1020.2 hPa WSW 12.9 km/h 25.7 km/h 81 % 0 mm 0 W/m2
01:36 10.9 °C 7.8 °C 1020.2 hPa WSW 14.5 km/h 25.7 km/h 81 % 0 mm 0 W/m2
01:41 10.9 °C 7.8 °C 1020.2 hPa WSW 11.3 km/h 22.5 km/h 81 % 0 mm 0 W/m2
01:46 10.9 °C 7.8 °C 1020.2 hPa WSW 12.9 km/h 22.5 km/h 81 % 0 mm 0 W/m2
01:51 10.9 °C 7.8 °C 1020.2 hPa West 14.5 km/h 29 km/h 81 % 0 mm 0 W/m2
01:56 10.8 °C 7.7 °C 1020.2 hPa West 16.1 km/h 32.2 km/h 81 % 0 mm 0 W/m2
02:01 10.8 °C 7.7 °C 1020.2 hPa West 16.1 km/h 32.2 km/h 81 % 0 mm 0 W/m2
02:06 10.8 °C 7.7 °C 1019.9 hPa West 19.3 km/h 40.2 km/h 81 % 0 mm 0 W/m2
02:11 10.9 °C 7.8 °C 1019.9 hPa West 22.5 km/h 40.2 km/h 81 % 0 mm 0 W/m2
02:16 10.9 °C 7.8 °C 1019.9 hPa West 20.9 km/h 40.2 km/h 81 % 0 mm 0 W/m2
02:21 10.9 °C 7.8 °C 1019.9 hPa West 20.9 km/h 38.6 km/h 81 % 0 mm 0 W/m2
02:26 10.9 °C 7.8 °C 1019.9 hPa West 22.5 km/h 38.6 km/h 81 % 0 mm 0 W/m2
02:31 10.9 °C 7.6 °C 1019.9 hPa West 20.9 km/h 37 km/h 80 % 0 mm 0 W/m2
02:36 11 °C 7.7 °C 1019.9 hPa West 22.5 km/h 46.7 km/h 80 % 0 mm 0 W/m2
02:41 11.1 °C 7.8 °C 1019.9 hPa West 24.1 km/h 48.3 km/h 80 % 0 mm 0 W/m2
02:46 11.1 °C 7.8 °C 1019.5 hPa West 24.1 km/h 48.3 km/h 80 % 0 mm 0 W/m2
02:51 11.1 °C 7.8 °C 1019.5 hPa West 22.5 km/h 43.5 km/h 80 % 0 mm 0 W/m2
03:01 11.1 °C 7.8 °C 1019.5 hPa West 22.5 km/h 46.7 km/h 80 % 0 mm 0 W/m2
03:11 11.1 °C 7.8 °C 1019.2 hPa West 20.9 km/h 38.6 km/h 80 % 0 mm 0 W/m2
03:16 11.1 °C 7.8 °C 1019.2 hPa West 24.1 km/h 43.5 km/h 80 % 0 mm 0 W/m2
03:21 11.1 °C 7.9 °C 1019.2 hPa West 24.1 km/h 43.5 km/h 81 % 0 mm 0 W/m2
03:26 11.1 °C 7.9 °C 1019.2 hPa West 22.5 km/h 41.8 km/h 81 % 0 mm 0 W/m2
03:31 11.1 °C 7.9 °C 1018.8 hPa West 25.7 km/h 43.5 km/h 81 % 0 mm 0 W/m2
03:36 11 °C 8.1 °C 1019.2 hPa West 24.1 km/h 43.5 km/h 82 % 0 mm 0 W/m2
03:41 10.9 °C 7.9 °C 1019.2 hPa West 22.5 km/h 43.5 km/h 82 % 0 mm 0 W/m2
03:46 11 °C 8.1 °C 1019.2 hPa West 22.5 km/h 43.5 km/h 82 % 0 mm 0 W/m2
03:51 11 °C 8.1 °C 1019.2 hPa West 24.1 km/h 38.6 km/h 82 % 0 mm 0 W/m2
03:56 10.9 °C 7.9 °C 1019.2 hPa West 22.5 km/h 38.6 km/h 82 % 0 mm 0 W/m2
04:01 10.9 °C 7.9 °C 1019.2 hPa West 19.3 km/h 35.4 km/h 82 % 0 mm 0 W/m2
04:06 10.9 °C 7.9 °C 1019.2 hPa West 19.3 km/h 35.4 km/h 82 % 0 mm 0 W/m2
04:12 10.9 °C 8.1 °C 1019.2 hPa West 20.9 km/h 38.6 km/h 83 % 0 mm 0 W/m2
04:17 10.9 °C 8.1 °C 1019.2 hPa West 22.5 km/h 38.6 km/h 83 % 0 mm 0 W/m2
04:22 10.9 °C 8.1 °C 1019.2 hPa West 20.9 km/h 37 km/h 83 % 0 mm 0 W/m2
04:24 10.9 °C 8.1 °C 1019.2 hPa West 19.3 km/h 35.4 km/h 83 % 0 mm 0 W/m2
04:29 10.9 °C 8.1 °C 1019.2 hPa West 19.3 km/h 38.6 km/h 83 % 0 mm 0 W/m2
04:33 10.9 °C 7.9 °C 1019.2 hPa West 19.3 km/h 38.6 km/h 82 % 0 mm 0 W/m2
04:38 10.9 °C 7.9 °C 1018.8 hPa West 19.3 km/h 38.6 km/h 82 % 0 mm 0 W/m2
04:43 11 °C 8.1 °C 1018.8 hPa West 17.7 km/h 32.2 km/h 82 % 0 mm 0 W/m2
04:48 10.9 °C 7.9 °C 1018.8 hPa WSW 16.1 km/h 25.7 km/h 82 % 0 mm 0 W/m2
04:53 10.9 °C 7.9 °C 1018.8 hPa WSW 16.1 km/h 25.7 km/h 82 % 0 mm 0 W/m2
04:58 10.8 °C 7.7 °C 1018.8 hPa WSW 17.7 km/h 29 km/h 81 % 0 mm 0 W/m2
05:03 10.8 °C 7.7 °C 1018.8 hPa WSW 17.7 km/h 32.2 km/h 81 % 0 mm 0 W/m2
05:07 10.7 °C 7.6 °C 1018.8 hPa WSW 17.7 km/h 32.2 km/h 81 % 0 mm 0 W/m2
05:12 10.6 °C 7.5 °C 1018.5 hPa WSW 16.1 km/h 25.7 km/h 81 % 0 mm 0 W/m2
05:17 10.6 °C 7.5 °C 1018.5 hPa WSW 16.1 km/h 30.6 km/h 81 % 0 mm 0 W/m2
05:22 10.6 °C 7.5 °C 1018.8 hPa WSW 17.7 km/h 30.6 km/h 81 % 0 mm 0 W/m2
05:27 10.6 °C 7.5 °C 1018.5 hPa WSW 19.3 km/h 35.4 km/h 81 % 0 mm 0 W/m2
05:32 10.6 °C 7.3 °C 1018.5 hPa WSW 19.3 km/h 35.4 km/h 80 % 0 mm 0 W/m2
05:37 10.6 °C 7.3 °C 1018.5 hPa WSW 19.3 km/h 33.8 km/h 80 % 0 mm 0 W/m2
05:42 10.6 °C 7.3 °C 1018.5 hPa WSW 17.7 km/h 32.2 km/h 80 % 0 mm 0 W/m2
05:48 10.6 °C 7.3 °C 1018.5 hPa WSW 17.7 km/h 30.6 km/h 80 % 0 mm 0 W/m2
05:53 10.6 °C 7.3 °C 1018.5 hPa WSW 19.3 km/h 32.2 km/h 80 % 0 mm 0 W/m2
05:58 10.5 °C 7.2 °C 1018.5 hPa WSW 17.7 km/h 32.2 km/h 80 % 0 mm 0 W/m2
06:03 10.5 °C 7.2 °C 1018.5 hPa West 19.3 km/h 32.2 km/h 80 % 0 mm 0 W/m2
06:08 10.5 °C 7 °C 1018.2 hPa West 20.9 km/h 35.4 km/h 79 % 0 mm 0 W/m2
06:13 10.6 °C 7.1 °C 1018.2 hPa WSW 22.5 km/h 35.4 km/h 79 % 0 mm 0 W/m2
06:18 10.6 °C 7.1 °C 1018.2 hPa WSW 20.9 km/h 37 km/h 79 % 0 mm 0 W/m2
06:23 10.6 °C 7.1 °C 1018.2 hPa WSW 19.3 km/h 37 km/h 79 % 0 mm 0 W/m2
06:28 10.5 °C 7.2 °C 1018.2 hPa WSW 17.7 km/h 29 km/h 80 % 0 mm 0 W/m2
06:33 10.5 °C 7 °C 1018.2 hPa WSW 17.7 km/h 35.4 km/h 79 % 0 mm 0 W/m2
06:38 10.5 °C 7 °C 1018.5 hPa WSW 20.9 km/h 35.4 km/h 79 % 0 mm 0 W/m2
06:43 10.5 °C 7 °C 1018.5 hPa West 19.3 km/h 32.2 km/h 79 % 0 mm 0 W/m2
06:48 10.6 °C 7.1 °C 1018.5 hPa West 17.7 km/h 32.2 km/h 79 % 0 mm 0 W/m2
06:53 10.6 °C 7.1 °C 1018.5 hPa West 19.3 km/h 35.4 km/h 79 % 0 mm 0 W/m2
06:58 10.7 °C 7.2 °C 1018.2 hPa West 20.9 km/h 38.6 km/h 79 % 0 mm 0 W/m2
07:03 10.7 °C 7 °C 1017.8 hPa WSW 19.3 km/h 38.6 km/h 78 % 0 mm 0 W/m2
07:08 10.7 °C 7 °C 1017.8 hPa WSW 19.3 km/h 32.2 km/h 78 % 0 mm 0 W/m2
07:13 10.7 °C 7.2 °C 1017.8 hPa WSW 20.9 km/h 35.4 km/h 79 % 0 mm 0 W/m2
07:18 10.7 °C 7.2 °C 1017.8 hPa WSW 20.9 km/h 37 km/h 79 % 0 mm 0 W/m2
07:23 10.7 °C 7 °C 1018.2 hPa West 22.5 km/h 37 km/h 78 % 0 mm 5 W/m2
07:28 10.7 °C 7.2 °C 1018.2 hPa West 22.5 km/h 35.4 km/h 79 % 0 mm 9 W/m2
07:33 10.7 °C 7.2 °C 1018.2 hPa West 20.9 km/h 33.8 km/h 79 % 0 mm 9 W/m2
07:38 10.8 °C 7.3 °C 1018.2 hPa West 19.3 km/h 33.8 km/h 79 % 0 mm 11 W/m2
07:43 10.8 °C 7.1 °C 1018.2 hPa WSW 19.3 km/h 35.4 km/h 78 % 0 mm 12 W/m2
07:48 10.9 °C 7.2 °C 1018.2 hPa WSW 22.5 km/h 37 km/h 78 % 0 mm 16 W/m2
07:53 10.9 °C 7.2 °C 1018.2 hPa WSW 22.5 km/h 37 km/h 78 % 0 mm 21 W/m2
07:58 10.9 °C 7.2 °C 1018.2 hPa West 19.3 km/h 35.4 km/h 78 % 0 mm 21 W/m2
08:04 10.9 °C 7.2 °C 1018.2 hPa WSW 20.9 km/h 37 km/h 78 % 0 mm 21 W/m2
08:09 11 °C 7.3 °C 1018.2 hPa WSW 22.5 km/h 37 km/h 78 % 0 mm 21 W/m2
08:14 10.9 °C 7.2 °C 1018.2 hPa WSW 22.5 km/h 45.1 km/h 78 % 0 mm 26 W/m2
08:19 10.9 °C 7.2 °C 1017.8 hPa WSW 22.5 km/h 45.1 km/h 78 % 0 mm 39 W/m2
08:24 10.9 °C 7.2 °C 1018.2 hPa WSW 22.5 km/h 43.5 km/h 78 % 0 mm 37 W/m2
08:29 11 °C 7.5 °C 1018.2 hPa WSW 20.9 km/h 35.4 km/h 79 % 0 mm 44 W/m2
08:34 11 °C 7.3 °C 1018.2 hPa WSW 19.3 km/h 33.8 km/h 78 % 0 mm 30 W/m2
08:39 11.1 °C 7.4 °C 1018.2 hPa WSW 19.3 km/h 35.4 km/h 78 % 0 mm 30 W/m2
08:44 11.1 °C 7.4 °C 1018.2 hPa WSW 20.9 km/h 38.6 km/h 78 % 0 mm 30 W/m2
08:49 11.1 °C 7.4 °C 1018.2 hPa WSW 22.5 km/h 38.6 km/h 78 % 0 mm 30 W/m2
08:54 11.1 °C 7.4 °C 1018.5 hPa WSW 22.5 km/h 38.6 km/h 78 % 0 mm 30 W/m2
08:59 11 °C 7.5 °C 1018.2 hPa WSW 22.5 km/h 38.6 km/h 79 % 0 mm 28 W/m2
09:04 11 °C 7.5 °C 1018.2 hPa WSW 20.9 km/h 35.4 km/h 79 % 0 mm 39 W/m2
09:09 11 °C 7.7 °C 1018.2 hPa WSW 20.9 km/h 35.4 km/h 80 % 0 mm 37 W/m2
09:14 10.9 °C 7.6 °C 1018.2 hPa WSW 17.7 km/h 35.4 km/h 80 % 0 mm 23 W/m2
09:19 10.9 °C 7.6 °C 1018.2 hPa WSW 17.7 km/h 29 km/h 80 % 0 mm 35 W/m2
09:24 11 °C 7.7 °C 1018.2 hPa WSW 17.7 km/h 32.2 km/h 80 % 0 mm 49 W/m2
09:29 11.1 °C 7.8 °C 1018.2 hPa WSW 16.1 km/h 32.2 km/h 80 % 0 mm 123 W/m2
09:34 11.2 °C 7.7 °C 1018.2 hPa WSW 16.1 km/h 29 km/h 79 % 0 mm 49 W/m2
09:39 11.3 °C 7.8 °C 1018.2 hPa WSW 17.7 km/h 33.8 km/h 79 % 0 mm 102 W/m2
09:44 11.3 °C 7.8 °C 1018.2 hPa WSW 19.3 km/h 38.6 km/h 79 % 0 mm 113 W/m2
09:49 11.4 °C 7.9 °C 1018.2 hPa WSW 19.3 km/h 38.6 km/h 79 % 0 mm 67 W/m2
09:54 11.4 °C 7.9 °C 1018.2 hPa WSW 19.3 km/h 35.4 km/h 79 % 0 mm 49 W/m2
09:59 11.4 °C 7.9 °C 1018.2 hPa WSW 19.3 km/h 32.2 km/h 79 % 0 mm 97 W/m2
10:04 11.4 °C 7.9 °C 1017.8 hPa WSW 17.7 km/h 32.2 km/h 79 % 0 mm 84 W/m2
10:09 11.5 °C 8 °C 1017.8 hPa WSW 20.9 km/h 40.2 km/h 79 % 0 mm 74 W/m2
10:14 11.4 °C 7.9 °C 1018.2 hPa WSW 22.5 km/h 40.2 km/h 79 % 0 mm 56 W/m2
10:19 11.4 °C 8.1 °C 1018.2 hPa WSW 20.9 km/h 38.6 km/h 80 % 0 mm 86 W/m2
10:20 11.4 °C 8.1 °C 1018.2 hPa WSW 20.9 km/h 38.6 km/h 80 % 0 mm 95 W/m2
10:25 11.3 °C 8 °C 1017.8 hPa WSW 19.3 km/h 35.4 km/h 80 % 0 mm 77 W/m2
10:30 11.2 °C 8.1 °C 1018.2 hPa WSW 20.9 km/h 33.8 km/h 81 % 0 mm 97 W/m2
10:35 11.2 °C 8.1 °C 1018.2 hPa WSW 22.5 km/h 35.4 km/h 81 % 0 mm 169 W/m2
10:40 11.3 °C 8.2 °C 1018.2 hPa WSW 22.5 km/h 35.4 km/h 81 % 0 mm 137 W/m2
10:45 11.3 °C 8.3 °C 1017.8 hPa WSW 20.9 km/h 35.4 km/h 82 % 0 mm 116 W/m2
10:50 11.3 °C 8.3 °C 1017.8 hPa WSW 20.9 km/h 37 km/h 82 % 0 mm 88 W/m2
10:55 11.3 °C 8.3 °C 1018.2 hPa WSW 19.3 km/h 37 km/h 82 % 0 mm 93 W/m2
11:00 11.3 °C 8.3 °C 1018.2 hPa WSW 19.3 km/h 35.4 km/h 82 % 0 mm 100 W/m2
11:05 11.2 °C 8.4 °C 1017.8 hPa WSW 19.3 km/h 35.4 km/h 83 % 0 mm 69 W/m2
11:10 11.2 °C 8.4 °C 1017.8 hPa WSW 19.3 km/h 32.2 km/h 83 % 0 mm 76 W/m2
11:15 11.1 °C 8.5 °C 1017.8 hPa SW 17.7 km/h 30.6 km/h 84 % 0 mm 69 W/m2
11:20 11.1 °C 8.5 °C 1017.8 hPa SW 14.5 km/h 29 km/h 84 % 0 mm 102 W/m2
11:25 11.2 °C 8.6 °C 1017.8 hPa SW 14.5 km/h 29 km/h 84 % 0 mm 67 W/m2
11:26 11.2 °C 8.6 °C 1017.8 hPa SW 14.5 km/h 29 km/h 84 % 0 mm 65 W/m2
11:31 11.3 °C 8.7 °C 1017.8 hPa SW 14.5 km/h 25.7 km/h 84 % 0 mm 72 W/m2
11:36 11.3 °C 8.7 °C 1017.8 hPa SW 14.5 km/h 25.7 km/h 84 % 0 mm 53 W/m2
11:41 11.4 °C 8.6 °C 1017.5 hPa WSW 14.5 km/h 29 km/h 83 % 0 mm 67 W/m2
11:46 11.5 °C 8.7 °C 1017.8 hPa WSW 17.7 km/h 29 km/h 83 % 0 mm 62 W/m2
11:56 11.6 °C 8.8 °C 1017.8 hPa WSW 17.7 km/h 30.6 km/h 83 % 0 mm 97 W/m2
12:01 11.7 °C 8.9 °C 1017.5 hPa WSW 17.7 km/h 30.6 km/h 83 % 0 mm 114 W/m2
12:06 11.7 °C 9.1 °C 1017.5 hPa WSW 16.1 km/h 24.1 km/h 84 % 0 mm 95 W/m2
12:11 11.7 °C 9.1 °C 1017.5 hPa WSW 14.5 km/h 22.5 km/h 84 % 0 mm 118 W/m2
12:16 11.8 °C 9.2 °C 1017.2 hPa WSW 12.9 km/h 24.1 km/h 84 % 0 mm 195 W/m2
12:21 11.8 °C 9.2 °C 1017.5 hPa WSW 16.1 km/h 29 km/h 84 % 0 mm 151 W/m2
12:26 11.9 °C 9.3 °C 1017.5 hPa WSW 17.7 km/h 29 km/h 84 % 0 mm 90 W/m2
12:31 11.9 °C 9.4 °C 1017.5 hPa WSW 17.7 km/h 29 km/h 85 % 0 mm 86 W/m2
12:36 11.8 °C 9.6 °C 1017.5 hPa WSW 19.3 km/h 29 km/h 86 % 0 mm 114 W/m2
12:41 11.7 °C 9.6 °C 1017.5 hPa WSW 17.7 km/h 29 km/h 87 % 0 mm 139 W/m2
12:46 11.6 °C 9.7 °C 1017.5 hPa WSW 16.1 km/h 29 km/h 88 % 0 mm 95 W/m2
12:51 11.6 °C 9.8 °C 1017.8 hPa WSW 12.9 km/h 25.7 km/h 89 % 0 mm 67 W/m2
12:56 11.4 °C 9.7 °C 1017.5 hPa SW 12.9 km/h 24.1 km/h 89 % 0 mm 74 W/m2
13:01 11.4 °C 9.7 °C 1017.5 hPa SW 14.5 km/h 24.1 km/h 89 % 0 mm 74 W/m2
13:11 11.6 °C 9.8 °C 1017.5 hPa WSW 12.9 km/h 24.1 km/h 89 % 0 mm 105 W/m2
13:16 11.6 °C 9.8 °C 1017.5 hPa WSW 12.9 km/h 24.1 km/h 89 % 0 mm 128 W/m2
13:21 11.8 °C 9.9 °C 1017.5 hPa WSW 14.5 km/h 24.1 km/h 88 % 0 mm 141 W/m2
13:26 11.9 °C 10 °C 1017.2 hPa WSW 16.1 km/h 24.1 km/h 88 % 0 mm 246 W/m2
13:31 12.2 °C 10.1 °C 1017.2 hPa WSW 17.7 km/h 32.2 km/h 87 % 0 mm 220 W/m2
13:36 12.4 °C 10.1 °C 1017.2 hPa WSW 16.1 km/h 32.2 km/h 86 % 0 mm 211 W/m2
13:41 12.6 °C 10.2 °C 1017.2 hPa WSW 16.1 km/h 32.2 km/h 85 % 0 mm 141 W/m2
13:46 12.7 °C 9.9 °C 1017.2 hPa WSW 19.3 km/h 37 km/h 83 % 0 mm 160 W/m2
13:56 12.8 °C 9.8 °C 1016.8 hPa WSW 22.5 km/h 43.5 km/h 82 % 0 mm 193 W/m2
14:01 12.9 °C 9.9 °C 1016.8 hPa WSW 20.9 km/h 43.5 km/h 82 % 0 mm 216 W/m2
14:06 12.9 °C 9.9 °C 1016.8 hPa West 19.3 km/h 37 km/h 82 % 0 mm 158 W/m2
14:11 12.9 °C 9.9 °C 1016.8 hPa WSW 19.3 km/h 37 km/h 82 % 0 mm 202 W/m2
14:16 12.9 °C 9.9 °C 1016.8 hPa WSW 17.7 km/h 37 km/h 82 % 0 mm 192 W/m2
14:21 13 °C 10 °C 1016.8 hPa West 19.3 km/h 37 km/h 82 % 0 mm 146 W/m2
14:26 13.1 °C 9.9 °C 1016.8 hPa WSW 20.9 km/h 37 km/h 81 % 0 mm 155 W/m2
14:31 13.1 °C 9.9 °C 1016.8 hPa WSW 19.3 km/h 37 km/h 81 % 0 mm 114 W/m2
14:37 13.2 °C 10 °C 1016.5 hPa WSW 17.7 km/h 32.2 km/h 81 % 0 mm 174 W/m2
14:47 12.9 °C 9.9 °C 1016.5 hPa WSW 19.3 km/h 32.2 km/h 82 % 0 mm 153 W/m2
14:52 12.9 °C 10.1 °C 1016.5 hPa WSW 17.7 km/h 32.2 km/h 83 % 0 mm 98 W/m2
14:57 12.8 °C 10 °C 1016.5 hPa WSW 17.7 km/h 37 km/h 83 % 0 mm 114 W/m2
15:02 12.8 °C 9.8 °C 1016.5 hPa WSW 20.9 km/h 37 km/h 82 % 0 mm 120 W/m2
15:07 12.8 °C 9.8 °C 1016.5 hPa WSW 22.5 km/h 37 km/h 82 % 0 mm 148 W/m2
15:12 12.9 °C 9.9 °C 1016.1 hPa WSW 19.3 km/h 37 km/h 82 % 0 mm 149 W/m2
15:17 12.9 °C 9.9 °C 1016.1 hPa WSW 17.7 km/h 38.6 km/h 82 % 0 mm 102 W/m2
15:22 12.9 °C 9.9 °C 1016.1 hPa WSW 19.3 km/h 38.6 km/h 82 % 0 mm 111 W/m2
15:27 12.9 °C 9.7 °C 1015.8 hPa WSW 20.9 km/h 37 km/h 81 % 0 mm 139 W/m2
15:32 13 °C 9.8 °C 1016.1 hPa WSW 20.9 km/h 33.8 km/h 81 % 0 mm 109 W/m2
15:37 13.1 °C 9.9 °C 1016.1 hPa West 19.3 km/h 33.8 km/h 81 % 0 mm 77 W/m2
15:42 13.1 °C 9.9 °C 1016.1 hPa West 19.3 km/h 33.8 km/h 81 % 0 mm 63 W/m2
15:47 13.1 °C 9.9 °C 1016.1 hPa West 19.3 km/h 35.4 km/h 81 % 0 mm 60 W/m2
15:48 13.1 °C 9.9 °C 1016.1 hPa West 19.3 km/h 35.4 km/h 81 % 0 mm 65 W/m2
15:53 13 °C 9.8 °C 1015.8 hPa West 19.3 km/h 35.4 km/h 81 % 0 mm 65 W/m2
15:58 13 °C 9.8 °C 1015.8 hPa WSW 17.7 km/h 30.6 km/h 81 % 0 mm 65 W/m2
16:03 13 °C 9.6 °C 1015.8 hPa WSW 19.3 km/h 33.8 km/h 80 % 0 mm 81 W/m2
16:08 13.1 °C 9.7 °C 1015.8 hPa WSW 17.7 km/h 33.8 km/h 80 % 0 mm 40 W/m2
16:13 13.1 °C 9.9 °C 1015.5 hPa WSW 16.1 km/h 25.7 km/h 81 % 0 mm 32 W/m2
16:15 13.1 °C 9.7 °C 1015.8 hPa WSW 17.7 km/h 35.4 km/h 80 % 0 mm 33 W/m2
16:20 13 °C 9.6 °C 1015.5 hPa West 17.7 km/h 37 km/h 80 % 0 mm 32 W/m2
16:25 13 °C 9.8 °C 1015.5 hPa WSW 16.1 km/h 37 km/h 81 % 0 mm 46 W/m2
16:30 12.9 °C 9.7 °C 1015.5 hPa WSW 14.5 km/h 24.1 km/h 81 % 0 mm 62 W/m2
16:35 12.9 °C 9.7 °C 1015.5 hPa WSW 16.1 km/h 30.6 km/h 81 % 0 mm 39 W/m2
16:40 13 °C 9.8 °C 1015.5 hPa WSW 17.7 km/h 32.2 km/h 81 % 0 mm 37 W/m2
16:50 12.9 °C 9.7 °C 1015.1 hPa WSW 16.1 km/h 30.6 km/h 81 % 0 mm 37 W/m2
16:51 12.9 °C 9.7 °C 1015.1 hPa WSW 16.1 km/h 30.6 km/h 81 % 0 mm 37 W/m2
16:56 13 °C 9.8 °C 1015.1 hPa WSW 16.1 km/h 30.6 km/h 81 % 0 mm 21 W/m2
17:01 12.9 °C 9.6 °C 1015.1 hPa WSW 16.1 km/h 32.2 km/h 80 % 0 mm 23 W/m2
17:06 13 °C 9.6 °C 1015.5 hPa West 16.1 km/h 32.2 km/h 80 % 0 mm 21 W/m2
17:11 12.9 °C 9.6 °C 1015.1 hPa West 17.7 km/h 30.6 km/h 80 % 0 mm 25 W/m2
17:16 12.9 °C 9.7 °C 1015.1 hPa West 16.1 km/h 30.6 km/h 81 % 0 mm 26 W/m2
17:21 12.8 °C 9.6 °C 1015.1 hPa West 14.5 km/h 29 km/h 81 % 0 mm 37 W/m2
17:26 12.8 °C 9.8 °C 1015.1 hPa West 12.9 km/h 22.5 km/h 82 % 0 mm 46 W/m2
17:31 12.8 °C 10 °C 1015.1 hPa WSW 9.7 km/h 19.3 km/h 83 % 0 mm 19 W/m2
17:36 12.8 °C 10 °C 1015.1 hPa SW 9.7 km/h 17.7 km/h 83 % 0 mm 11 W/m2
17:41 12.7 °C 10.1 °C 1015.1 hPa SW 11.3 km/h 20.9 km/h 84 % 0 mm 9 W/m2
17:44 12.6 °C 9.9 °C 1015.1 hPa SW 11.3 km/h 20.9 km/h 84 % 0 mm 14 W/m2
17:49 12.5 °C 10.1 °C 1014.8 hPa WSW 11.3 km/h 24.1 km/h 85 % 0 mm 9 W/m2
17:54 12.4 °C 9.9 °C 1014.8 hPa WSW 12.9 km/h 24.1 km/h 85 % 0 mm 16 W/m2
17:59 12.3 °C 9.8 °C 1014.4 hPa WSW 12.9 km/h 22.5 km/h 85 % 0 mm 12 W/m2
18:04 12.3 °C 9.8 °C 1014.4 hPa WSW 14.5 km/h 30.6 km/h 85 % 0 mm 12 W/m2
18:09 12.3 °C 9.8 °C 1014.8 hPa WSW 17.7 km/h 30.6 km/h 85 % 0 mm 14 W/m2
18:14 12.2 °C 9.8 °C 1014.4 hPa WSW 17.7 km/h 29 km/h 85 % 0 mm 9 W/m2
18:19 12.2 °C 9.8 °C 1014.4 hPa WSW 19.3 km/h 35.4 km/h 85 % 0 mm 0 W/m2
18:24 12.2 °C 9.9 °C 1014.4 hPa WSW 17.7 km/h 35.4 km/h 86 % 0 mm 0 W/m2
18:29 12.1 °C 9.8 °C 1014.1 hPa WSW 16.1 km/h 25.7 km/h 86 % 0 mm 0 W/m2
18:34 12.1 °C 9.8 °C 1014.1 hPa WSW 16.1 km/h 29 km/h 86 % 0 mm 0 W/m2
18:39 12 °C 9.7 °C 1014.1 hPa WSW 16.1 km/h 29 km/h 86 % 0 mm 0 W/m2
18:44 12 °C 9.7 °C 1014.1 hPa WSW 14.5 km/h 25.7 km/h 86 % 0 mm 0 W/m2
18:49 11.9 °C 9.8 °C 1014.1 hPa SW 14.5 km/h 22.5 km/h 87 % 0 mm 0 W/m2
18:55 11.9 °C 9.8 °C 1014.1 hPa SW 12.9 km/h 22.5 km/h 87 % 0 mm 0 W/m2
19:00 11.9 °C 9.8 °C 1014.1 hPa SW 12.9 km/h 19.3 km/h 87 % 0 mm 0 W/m2
19:05 11.8 °C 9.9 °C 1013.8 hPa SW 12.9 km/h 22.5 km/h 88 % 0 mm 0 W/m2
19:10 11.8 °C 9.9 °C 1014.1 hPa SW 12.9 km/h 22.5 km/h 88 % 0 mm 0 W/m2
19:15 11.8 °C 10.1 °C 1013.8 hPa SW 12.9 km/h 20.9 km/h 89 % 0 mm 0 W/m2
19:16 11.8 °C 10.1 °C 1013.8 hPa SW 12.9 km/h 19.3 km/h 89 % 0 mm 0 W/m2
19:21 11.8 °C 10.1 °C 1013.8 hPa SW 11.3 km/h 19.3 km/h 89 % 0 mm 0 W/m2
19:26 11.8 °C 10.1 °C 1013.8 hPa SW 9.7 km/h 16.1 km/h 89 % 0 mm 0 W/m2
19:31 11.7 °C 9.9 °C 1013.8 hPa SW 9.7 km/h 19.3 km/h 89 % 0 mm 0 W/m2
19:36 11.7 °C 9.9 °C 1013.8 hPa WSW 12.9 km/h 24.1 km/h 89 % 0 mm 0 W/m2
19:41 11.8 °C 10.1 °C 1013.8 hPa WSW 14.5 km/h 24.1 km/h 89 % 0 mm 0 W/m2
19:46 11.8 °C 10.1 °C 1013.4 hPa SW 11.3 km/h 24.1 km/h 89 % 0 mm 0 W/m2
19:51 11.8 °C 10.1 °C 1013.4 hPa SW 9.7 km/h 16.1 km/h 89 % 0 mm 0 W/m2
19:56 11.8 °C 10.1 °C 1013.4 hPa SSW 9.7 km/h 17.7 km/h 89 % 0 mm 0 W/m2
20:01 11.7 °C 9.9 °C 1013.1 hPa SSW 8 km/h 17.7 km/h 89 % 0 mm 0 W/m2
20:06 11.7 °C 10.1 °C 1013.4 hPa SSW 8 km/h 14.5 km/h 90 % 0 mm 0 W/m2
20:11 11.7 °C 10.1 °C 1013.1 hPa SSW 6.4 km/h 12.9 km/h 90 % 0 mm 0 W/m2
20:16 11.7 °C 10.1 °C 1013.1 hPa SSW 6.4 km/h 14.5 km/h 90 % 0 mm 0 W/m2
20:21 11.6 °C 10 °C 1013.1 hPa SSW 6.4 km/h 14.5 km/h 90 % 0 mm 0 W/m2
20:26 11.6 °C 10.2 °C 1013.1 hPa SSW 8 km/h 14.5 km/h 91 % 0 mm 0 W/m2
20:31 11.6 °C 10.2 °C 1013.1 hPa SSW 8 km/h 12.9 km/h 91 % 0 mm 0 W/m2
20:36 11.5 °C 10.1 °C 1012.8 hPa SSW 6.4 km/h 14.5 km/h 91 % 0 mm 0 W/m2
20:41 11.5 °C 10.1 °C 1012.8 hPa SSW 6.4 km/h 16.1 km/h 91 % 0 mm 0 W/m2
20:46 11.4 °C 10 °C 1012.4 hPa SSW 8 km/h 16.1 km/h 91 % 0 mm 0 W/m2
20:51 11.4 °C 10.2 °C 1012.4 hPa SSW 8 km/h 14.5 km/h 92 % 0 mm 0 W/m2
20:56 11.4 °C 10.2 °C 1012.1 hPa SSW 9.7 km/h 17.7 km/h 92 % 0 mm 0 W/m2
21:01 11.4 °C 10.2 °C 1012.1 hPa SSW 9.7 km/h 17.7 km/h 92 % 0 mm 0 W/m2
21:06 11.4 °C 10.2 °C 1012.1 hPa SSW 8 km/h 16.1 km/h 92 % 0 mm 0 W/m2
21:11 11.4 °C 10.2 °C 1011.7 hPa South 6.4 km/h 14.5 km/h 92 % 0 mm 0 W/m2
21:16 11.4 °C 10.2 °C 1011.4 hPa South 8 km/h 22.5 km/h 92 % 0 mm 0 W/m2
21:21 11.4 °C 10.3 °C 1011.4 hPa South 8 km/h 22.5 km/h 93 % 0.25 mm 0 W/m2
21:26 11.4 °C 10.3 °C 1011.1 hPa South 8 km/h 16.1 km/h 93 % 0.25 mm 0 W/m2
21:31 11.4 °C 10.3 °C 1011.4 hPa South 9.7 km/h 22.5 km/h 93 % 0.25 mm 0 W/m2
21:36 11.5 °C 10.4 °C 1011.1 hPa SSW 8 km/h 22.5 km/h 93 % 0.25 mm 0 W/m2
21:41 11.6 °C 10.5 °C 1011.1 hPa SSW 8 km/h 17.7 km/h 93 % 0.25 mm 0 W/m2
21:46 11.6 °C 10.5 °C 1010.7 hPa SSW 9.7 km/h 17.7 km/h 93 % 0.25 mm 0 W/m2
21:51 11.7 °C 10.6 °C 1010.4 hPa SSW 11.3 km/h 22.5 km/h 93 % 0.25 mm 0 W/m2
21:56 11.7 °C 10.6 °C 1010.7 hPa SSW 11.3 km/h 22.5 km/h 93 % 0.25 mm 0 W/m2
22:01 11.8 °C 10.6 °C 1010.4 hPa SSW 11.3 km/h 22.5 km/h 92 % 0.25 mm 0 W/m2
22:06 11.8 °C 10.6 °C 1010 hPa SSW 12.9 km/h 22.5 km/h 92 % 0.25 mm 0 W/m2
22:11 11.8 °C 10.6 °C 1010 hPa SSW 11.3 km/h 22.5 km/h 92 % 0.25 mm 0 W/m2
22:16 11.9 °C 10.7 °C 1010 hPa SSW 12.9 km/h 29 km/h 92 % 0.25 mm 0 W/m2
22:21 11.9 °C 10.7 °C 1009.7 hPa SW 14.5 km/h 29 km/h 92 % 0 mm 0 W/m2
22:26 12 °C 10.7 °C 1009.7 hPa SW 12.9 km/h 22.5 km/h 92 % 0 mm 0 W/m2
22:31 12.1 °C 10.8 °C 1009.7 hPa SW 12.9 km/h 22.5 km/h 92 % 0 mm 0 W/m2
22:36 12.1 °C 10.8 °C 1009.4 hPa SW 12.9 km/h 22.5 km/h 92 % 0 mm 0 W/m2
22:41 12.1 °C 10.8 °C 1009 hPa SW 14.5 km/h 29 km/h 92 % 0 mm 0 W/m2
22:46 12.2 °C 10.9 °C 1009 hPa SW 17.7 km/h 37 km/h 92 % 0 mm 0 W/m2
22:52 12.2 °C 10.9 °C 1009 hPa SW 17.7 km/h 37 km/h 92 % 0 mm 0 W/m2
22:57 12.3 °C 11.1 °C 1009 hPa SW 16.1 km/h 25.7 km/h 92 % 0 mm 0 W/m2
23:02 12.3 °C 11.1 °C 1008.7 hPa SW 16.1 km/h 25.7 km/h 92 % 0 mm 0 W/m2
23:07 12.5 °C 11.2 °C 1008.7 hPa SW 19.3 km/h 32.2 km/h 92 % 0 mm 0 W/m2
23:12 12.7 °C 11.4 °C 1008.4 hPa SW 19.3 km/h 32.2 km/h 92 % 0 mm 0 W/m2
23:17 12.8 °C 11.4 °C 1008 hPa WSW 19.3 km/h 40.2 km/h 91 % 0 mm 0 W/m2
23:18 12.8 °C 11.4 °C 1008 hPa WSW 19.3 km/h 40.2 km/h 91 % 0 mm 0 W/m2
23:23 12.9 °C 11.4 °C 1008 hPa WSW 20.9 km/h 40.2 km/h 91 % 0 mm 0 W/m2
23:28 13 °C 11.6 °C 1008 hPa SW 19.3 km/h 40.2 km/h 91 % 0 mm 0 W/m2
23:33 13.1 °C 11.7 °C 1008 hPa SW 20.9 km/h 40.2 km/h 91 % 0 mm 0 W/m2
23:38 13.2 °C 11.8 °C 1007.7 hPa WSW 20.9 km/h 37 km/h 91 % 0 mm 0 W/m2
23:43 13.2 °C 11.8 °C 1007.3 hPa SW 19.3 km/h 38.6 km/h 91 % 0 mm 0 W/m2
23:48 13.2 °C 11.8 °C 1007.3 hPa SW 20.9 km/h 40.2 km/h 91 % 0 mm 0 W/m2
23:53 13.3 °C 11.9 °C 1007.3 hPa WSW 20.9 km/h 40.2 km/h 91 % 0 mm 0 W/m2
23:54 13.3 °C 11.9 °C 1007.3 hPa SW 20.9 km/h 40.2 km/h 91 % 0 mm 0 W/m2
23:59 13.3 °C 11.9 °C 1007.3 hPa WSW 19.3 km/h 35.4 km/h 91 % 0 mm 0 W/m2
Delerius-Weather
Compliments of Weather Underground - 2.25 mb

Data updates at regular intervals.